Lucerne, Washington
Current Conditions -  °F | °C
As of 11:55 AM on Thursday 27 Nov 2014 (Local Time) from KEAT Reporting Station
Few Clouds Few Clouds  
Wind Chill: 44°   Ceiling: Unl
Heat Index: 46°   Visibility: NA
Dew Point: 40°   Wind: 5mph
Humidity: 79%   Direction: NA
Pressure: 29.79"   Gusts: NA
Location:  47.9044°N, 120.153°W
Report Text: KEAT 271955Z AUTO VRB04KT FEW060 08/04 A2979 RMK AO2 SLP092 T00780044
Loading
Personal Weather Stations






























Interactive Weather Map New forecast layout! Learn more

10-Day Weather Forecast

Advertisements
Track Severe Weather on mobile